sensor_id;sensor_type;location;lat;lon;timestamp;P1;durP1;ratioP1;P2;durP2;ratioP2
8435;SDS011;4255;48.730;9.156;2023-04-25T00:02:02;5.73;;;5.23;;
8435;SDS011;4255;48.730;9.156;2023-04-25T00:04:28;12.30;;;5.47;;
8435;SDS011;4255;48.730;9.156;2023-04-25T00:06:54;6.05;;;5.55;;
8435;SDS011;4255;48.730;9.156;2023-04-25T00:09:20;10.60;;;5.03;;
8435;SDS011;4255;48.730;9.156;2023-04-25T00:11:47;4.93;;;4.32;;
8435;SDS011;4255;48.730;9.156;2023-04-25T00:14:13;5.18;;;4.22;;
8435;SDS011;4255;48.730;9.156;2023-04-25T00:16:39;4.80;;;4.40;;
8435;SDS011;4255;48.730;9.156;2023-04-25T00:19:06;4.82;;;4.43;;
8435;SDS011;4255;48.730;9.156;2023-04-25T00:21:32;7.95;;;4.75;;
8435;SDS011;4255;48.730;9.156;2023-04-25T00:23:58;5.13;;;4.63;;
8435;SDS011;4255;48.730;9.156;2023-04-25T00:26:24;4.68;;;4.28;;
8435;SDS011;4255;48.730;9.156;2023-04-25T00:28:50;5.28;;;4.40;;
8435;SDS011;4255;48.730;9.156;2023-04-25T00:31:16;4.50;;;4.20;;
8435;SDS011;4255;48.730;9.156;2023-04-25T00:33:41;5.13;;;4.53;;
8435;SDS011;4255;48.730;9.156;2023-04-25T00:36:07;4.80;;;4.30;;
8435;SDS011;4255;48.730;9.156;2023-04-25T00:38:33;5.47;;;5.07;;
8435;SDS011;4255;48.730;9.156;2023-04-25T00:40:59;4.90;;;4.45;;
8435;SDS011;4255;48.730;9.156;2023-04-25T00:43:25;4.90;;;4.50;;
8435;SDS011;4255;48.730;9.156;2023-04-25T00:45:52;5.15;;;4.75;;
8435;SDS011;4255;48.730;9.156;2023-04-25T00:48:17;4.67;;;4.13;;
8435;SDS011;4255;48.730;9.156;2023-04-25T00:50:47;5.70;;;4.77;;
8435;SDS011;4255;48.730;9.156;2023-04-25T00:53:19;5.15;;;4.65;;
8435;SDS011;4255;48.730;9.156;2023-04-25T00:55:48;5.13;;;4.63;;
8435;SDS011;4255;48.730;9.156;2023-04-25T00:58:16;7.85;;;5.45;;
8435;SDS011;4255;48.730;9.156;2023-04-25T01:00:42;7.13;;;5.53;;
8435;SDS011;4255;48.730;9.156;2023-04-25T01:03:10;6.50;;;4.53;;
8435;SDS011;4255;48.730;9.156;2023-04-25T01:05:36;10.53;;;5.87;;
8435;SDS011;4255;48.730;9.156;2023-04-25T01:08:02;5.40;;;4.90;;
8435;SDS011;4255;48.730;9.156;2023-04-25T01:10:27;5.43;;;4.90;;
8435;SDS011;4255;48.730;9.156;2023-04-25T01:12:53;7.80;;;4.77;;
8435;SDS011;4255;48.730;9.156;2023-04-25T01:15:19;5.38;;;4.88;;
8435;SDS011;4255;48.730;9.156;2023-04-25T01:17:45;5.40;;;4.93;;
8435;SDS011;4255;48.730;9.156;2023-04-25T01:20:11;4.60;;;4.30;;
8435;SDS011;4255;48.730;9.156;2023-04-25T01:22:38;5.03;;;4.63;;
8435;SDS011;4255;48.730;9.156;2023-04-25T01:25:04;4.97;;;4.57;;
8435;SDS011;4255;48.730;9.156;2023-04-25T01:27:31;4.57;;;4.10;;
8435;SDS011;4255;48.730;9.156;2023-04-25T01:29:57;6.45;;;5.15;;
8435;SDS011;4255;48.730;9.156;2023-04-25T01:32:24;6.88;;;5.72;;
8435;SDS011;4255;48.730;9.156;2023-04-25T01:34:51;5.82;;;5.28;;
8435;SDS011;4255;48.730;9.156;2023-04-25T01:37:17;4.80;;;4.40;;
8435;SDS011;4255;48.730;9.156;2023-04-25T01:39:42;7.30;;;5.20;;
8435;SDS011;4255;48.730;9.156;2023-04-25T01:42:09;5.88;;;4.88;;
8435;SDS011;4255;48.730;9.156;2023-04-25T01:44:34;5.60;;;5.10;;
8435;SDS011;4255;48.730;9.156;2023-04-25T01:47:00;5.63;;;4.40;;
8435;SDS011;4255;48.730;9.156;2023-04-25T01:49:26;5.90;;;5.40;;
8435;SDS011;4255;48.730;9.156;2023-04-25T01:51:51;5.40;;;4.60;;
8435;SDS011;4255;48.730;9.156;2023-04-25T01:54:17;7.20;;;4.90;;
8435;SDS011;4255;48.730;9.156;2023-04-25T01:56:43;5.03;;;4.63;;
8435;SDS011;4255;48.730;9.156;2023-04-25T01:59:15;5.28;;;4.78;;
8435;SDS011;4255;48.730;9.156;2023-04-25T02:01:40;4.90;;;4.40;;
8435;SDS011;4255;48.730;9.156;2023-04-25T02:04:06;4.83;;;4.43;;
8435;SDS011;4255;48.730;9.156;2023-04-25T02:06:31;8.93;;;5.23;;
8435;SDS011;4255;48.730;9.156;2023-04-25T02:08:57;4.13;;;3.70;;
8435;SDS011;4255;48.730;9.156;2023-04-25T02:11:23;4.23;;;3.83;;
8435;SDS011;4255;48.730;9.156;2023-04-25T02:13:49;4.47;;;3.60;;
8435;SDS011;4255;48.730;9.156;2023-04-25T02:16:14;5.30;;;4.00;;
8435;SDS011;4255;48.730;9.156;2023-04-25T02:18:40;5.20;;;4.10;;
8435;SDS011;4255;48.730;9.156;2023-04-25T02:21:05;4.20;;;3.80;;
8435;SDS011;4255;48.730;9.156;2023-04-25T02:23:31;4.30;;;3.90;;
8435;SDS011;4255;48.730;9.156;2023-04-25T02:25:57;3.73;;;3.30;;
8435;SDS011;4255;48.730;9.156;2023-04-25T02:28:23;3.78;;;3.58;;
8435;SDS011;4255;48.730;9.156;2023-04-25T02:30:50;3.80;;;3.40;;
8435;SDS011;4255;48.730;9.156;2023-04-25T02:33:16;7.75;;;4.60;;
8435;SDS011;4255;48.730;9.156;2023-04-25T02:35:42;4.53;;;4.13;;
8435;SDS011;4255;48.730;9.156;2023-04-25T02:38:08;4.63;;;4.27;;
8435;SDS011;4255;48.730;9.156;2023-04-25T02:40:33;3.97;;;3.67;;
8435;SDS011;4255;48.730;9.156;2023-04-25T02:42:59;7.77;;;4.50;;
8435;SDS011;4255;48.730;9.156;2023-04-25T02:45:24;4.80;;;4.40;;
8435;SDS011;4255;48.730;9.156;2023-04-25T02:47:50;10.73;;;4.00;;
8435;SDS011;4255;48.730;9.156;2023-04-25T02:50:15;4.30;;;3.80;;
8435;SDS011;4255;48.730;9.156;2023-04-25T02:52:42;4.60;;;3.90;;
8435;SDS011;4255;48.730;9.156;2023-04-25T02:55:08;4.63;;;3.83;;
8435;SDS011;4255;48.730;9.156;2023-04-25T02:57:34;3.87;;;3.47;;
8435;SDS011;4255;48.730;9.156;2023-04-25T02:59:59;4.87;;;4.47;;
8435;SDS011;4255;48.730;9.156;2023-04-25T03:02:25;3.87;;;3.47;;
8435;SDS011;4255;48.730;9.156;2023-04-25T03:04:50;8.00;;;4.43;;
8435;SDS011;4255;48.730;9.156;2023-04-25T03:07:16;4.17;;;3.77;;
8435;SDS011;4255;48.730;9.156;2023-04-25T03:09:42;3.90;;;3.60;;
8435;SDS011;4255;48.730;9.156;2023-04-25T03:12:07;4.90;;;4.50;;
8435;SDS011;4255;48.730;9.156;2023-04-25T03:14:33;5.33;;;3.60;;
8435;SDS011;4255;48.730;9.156;2023-04-25T03:16:58;7.30;;;4.33;;
8435;SDS011;4255;48.730;9.156;2023-04-25T03:19:24;5.47;;;3.50;;
8435;SDS011;4255;48.730;9.156;2023-04-25T03:21:50;5.07;;;4.60;;
8435;SDS011;4255;48.730;9.156;2023-04-25T03:24:15;9.67;;;6.07;;
8435;SDS011;4255;48.730;9.156;2023-04-25T03:26:41;5.73;;;5.23;;
8435;SDS011;4255;48.730;9.156;2023-04-25T03:29:06;4.57;;;4.17;;
8435;SDS011;4255;48.730;9.156;2023-04-25T03:31:32;4.37;;;4.07;;
8435;SDS011;4255;48.730;9.156;2023-04-25T03:33:57;3.63;;;3.43;;
8435;SDS011;4255;48.730;9.156;2023-04-25T03:36:23;3.87;;;3.67;;
8435;SDS011;4255;48.730;9.156;2023-04-25T03:38:49;4.50;;;4.20;;
8435;SDS011;4255;48.730;9.156;2023-04-25T03:41:15;5.10;;;4.60;;
8435;SDS011;4255;48.730;9.156;2023-04-25T03:43:40;4.53;;;4.03;;
8435;SDS011;4255;48.730;9.156;2023-04-25T03:46:06;6.00;;;3.87;;
8435;SDS011;4255;48.730;9.156;2023-04-25T03:48:31;5.00;;;4.43;;
8435;SDS011;4255;48.730;9.156;2023-04-25T03:50:57;8.73;;;4.30;;
8435;SDS011;4255;48.730;9.156;2023-04-25T03:53:22;7.27;;;4.80;;
8435;SDS011;4255;48.730;9.156;2023-04-25T03:55:48;4.60;;;4.17;;
8435;SDS011;4255;48.730;9.156;2023-04-25T03:58:14;4.00;;;3.70;;
8435;SDS011;4255;48.730;9.156;2023-04-25T04:00:39;4.90;;;4.13;;
8435;SDS011;4255;48.730;9.156;2023-04-25T04:03:05;4.30;;;4.00;;
8435;SDS011;4255;48.730;9.156;2023-04-25T04:05:30;5.03;;;4.50;;
8435;SDS011;4255;48.730;9.156;2023-04-25T04:07:57;5.00;;;4.60;;
8435;SDS011;4255;48.730;9.156;2023-04-25T04:10:23;5.20;;;4.40;;
8435;SDS011;4255;48.730;9.156;2023-04-25T04:12:48;6.77;;;4.07;;
8435;SDS011;4255;48.730;9.156;2023-04-25T04:15:14;5.43;;;4.93;;
8435;SDS011;4255;48.730;9.156;2023-04-25T04:17:39;5.30;;;4.67;;
8435;SDS011;4255;48.730;9.156;2023-04-25T04:20:06;4.05;;;3.85;;
8435;SDS011;4255;48.730;9.156;2023-04-25T04:22:33;8.73;;;4.60;;
8435;SDS011;4255;48.730;9.156;2023-04-25T04:24:58;7.17;;;3.93;;
8435;SDS011;4255;48.730;9.156;2023-04-25T04:27:24;5.77;;;4.90;;
8435;SDS011;4255;48.730;9.156;2023-04-25T04:29:50;7.30;;;4.50;;
8435;SDS011;4255;48.730;9.156;2023-04-25T04:32:17;5.43;;;5.03;;
8435;SDS011;4255;48.730;9.156;2023-04-25T04:34:42;6.50;;;4.40;;
8435;SDS011;4255;48.730;9.156;2023-04-25T04:37:08;10.13;;;4.60;;
8435;SDS011;4255;48.730;9.156;2023-04-25T04:39:34;5.80;;;5.03;;
8435;SDS011;4255;48.730;9.156;2023-04-25T04:42:01;5.15;;;4.22;;
8435;SDS011;4255;48.730;9.156;2023-04-25T04:44:28;5.00;;;4.68;;
8435;SDS011;4255;48.730;9.156;2023-04-25T04:46:54;6.43;;;5.22;;
8435;SDS011;4255;48.730;9.156;2023-04-25T04:49:20;5.80;;;5.10;;
8435;SDS011;4255;48.730;9.156;2023-04-25T04:51:46;5.80;;;5.30;;
8435;SDS011;4255;48.730;9.156;2023-04-25T04:54:12;5.93;;;5.35;;
8435;SDS011;4255;48.730;9.156;2023-04-25T04:56:38;6.30;;;5.70;;
8435;SDS011;4255;48.730;9.156;2023-04-25T04:59:04;5.17;;;4.77;;
8435;SDS011;4255;48.730;9.156;2023-04-25T05:01:29;7.80;;;5.23;;
8435;SDS011;4255;48.730;9.156;2023-04-25T05:03:55;8.10;;;4.90;;
8435;SDS011;4255;48.730;9.156;2023-04-25T05:06:25;6.88;;;5.22;;
8435;SDS011;4255;48.730;9.156;2023-04-25T05:08:52;9.73;;;5.70;;
8435;SDS011;4255;48.730;9.156;2023-04-25T05:11:18;6.03;;;5.43;;
8435;SDS011;4255;48.730;9.156;2023-04-25T05:13:44;5.00;;;4.50;;
8435;SDS011;4255;48.730;9.156;2023-04-25T05:16:10;6.30;;;5.15;;
8435;SDS011;4255;48.730;9.156;2023-04-25T05:18:36;6.63;;;4.67;;
8435;SDS011;4255;48.730;9.156;2023-04-25T05:21:02;6.17;;;4.83;;
8435;SDS011;4255;48.730;9.156;2023-04-25T05:23:27;5.57;;;5.17;;
8435;SDS011;4255;48.730;9.156;2023-04-25T05:25:55;6.50;;;5.88;;
8435;SDS011;4255;48.730;9.156;2023-04-25T05:28:20;5.90;;;5.17;;
8435;SDS011;4255;48.730;9.156;2023-04-25T05:30:46;5.50;;;5.00;;
8435;SDS011;4255;48.730;9.156;2023-04-25T05:33:12;6.50;;;5.90;;
8435;SDS011;4255;48.730;9.156;2023-04-25T05:35:38;8.60;;;5.93;;
8435;SDS011;4255;48.730;9.156;2023-04-25T05:38:03;6.67;;;5.30;;
8435;SDS011;4255;48.730;9.156;2023-04-25T05:40:29;6.53;;;5.40;;
8435;SDS011;4255;48.730;9.156;2023-04-25T05:42:54;5.70;;;5.10;;
8435;SDS011;4255;48.730;9.156;2023-04-25T05:45:20;5.40;;;4.90;;
8435;SDS011;4255;48.730;9.156;2023-04-25T05:47:46;10.60;;;5.73;;
8435;SDS011;4255;48.730;9.156;2023-04-25T05:50:11;8.40;;;5.97;;
8435;SDS011;4255;48.730;9.156;2023-04-25T05:52:37;7.20;;;5.30;;
8435;SDS011;4255;48.730;9.156;2023-04-25T05:55:03;9.55;;;6.00;;
8435;SDS011;4255;48.730;9.156;2023-04-25T05:57:29;6.93;;;5.68;;
8435;SDS011;4255;48.730;9.156;2023-04-25T05:59:56;7.68;;;5.78;;
8435;SDS011;4255;48.730;9.156;2023-04-25T06:02:21;8.00;;;4.93;;
8435;SDS011;4255;48.730;9.156;2023-04-25T06:04:50;5.97;;;5.37;;
8435;SDS011;4255;48.730;9.156;2023-04-25T06:07:16;9.20;;;5.32;;
8435;SDS011;4255;48.730;9.156;2023-04-25T06:09:42;7.25;;;6.53;;
8435;SDS011;4255;48.730;9.156;2023-04-25T06:12:08;6.57;;;5.97;;
8435;SDS011;4255;48.730;9.156;2023-04-25T06:14:34;7.37;;;5.40;;
8435;SDS011;4255;48.730;9.156;2023-04-25T06:17:00;5.10;;;4.70;;
8435;SDS011;4255;48.730;9.156;2023-04-25T06:19:31;6.00;;;5.47;;
8435;SDS011;4255;48.730;9.156;2023-04-25T06:21:57;5.75;;;5.25;;
8435;SDS011;4255;48.730;9.156;2023-04-25T06:24:23;8.43;;;4.87;;
8435;SDS011;4255;48.730;9.156;2023-04-25T06:26:48;6.10;;;5.50;;
8435;SDS011;4255;48.730;9.156;2023-04-25T06:29:14;5.73;;;5.13;;
8435;SDS011;4255;48.730;9.156;2023-04-25T06:31:40;6.40;;;4.67;;
8435;SDS011;4255;48.730;9.156;2023-04-25T06:34:05;7.53;;;5.13;;
8435;SDS011;4255;48.730;9.156;2023-04-25T06:36:31;5.23;;;4.73;;
8435;SDS011;4255;48.730;9.156;2023-04-25T06:38:57;5.50;;;5.00;;
8435;SDS011;4255;48.730;9.156;2023-04-25T06:41:22;5.40;;;4.90;;
8435;SDS011;4255;48.730;9.156;2023-04-25T06:43:48;5.97;;;5.23;;
8435;SDS011;4255;48.730;9.156;2023-04-25T06:46:13;5.93;;;5.43;;
8435;SDS011;4255;48.730;9.156;2023-04-25T06:48:39;6.47;;;5.47;;
8435;SDS011;4255;48.730;9.156;2023-04-25T06:51:04;8.30;;;6.20;;
8435;SDS011;4255;48.730;9.156;2023-04-25T06:53:30;6.60;;;5.37;;
8435;SDS011;4255;48.730;9.156;2023-04-25T06:55:55;5.50;;;5.00;;
8435;SDS011;4255;48.730;9.156;2023-04-25T06:58:21;5.33;;;4.83;;
8435;SDS011;4255;48.730;9.156;2023-04-25T07:00:47;14.10;;;5.47;;
8435;SDS011;4255;48.730;9.156;2023-04-25T07:03:13;5.73;;;5.23;;
8435;SDS011;4255;48.730;9.156;2023-04-25T07:05:38;6.90;;;6.20;;
8435;SDS011;4255;48.730;9.156;2023-04-25T07:08:04;7.93;;;5.43;;
8435;SDS011;4255;48.730;9.156;2023-04-25T07:10:30;7.83;;;5.73;;
8435;SDS011;4255;48.730;9.156;2023-04-25T07:12:55;6.10;;;5.50;;
8435;SDS011;4255;48.730;9.156;2023-04-25T07:15:21;5.97;;;5.30;;
8435;SDS011;4255;48.730;9.156;2023-04-25T07:17:46;7.53;;;5.77;;
8435;SDS011;4255;48.730;9.156;2023-04-25T07:20:12;7.20;;;5.90;;
8435;SDS011;4255;48.730;9.156;2023-04-25T07:22:38;7.03;;;6.37;;
8435;SDS011;4255;48.730;9.156;2023-04-25T07:25:04;5.50;;;5.00;;
8435;SDS011;4255;48.730;9.156;2023-04-25T07:27:30;7.53;;;6.55;;
8435;SDS011;4255;48.730;9.156;2023-04-25T07:29:56;6.93;;;6.10;;
8435;SDS011;4255;48.730;9.156;2023-04-25T07:32:22;7.63;;;6.78;;
8435;SDS011;4255;48.730;9.156;2023-04-25T07:34:48;8.00;;;6.67;;
8435;SDS011;4255;48.730;9.156;2023-04-25T07:37:14;9.03;;;6.03;;
8435;SDS011;4255;48.730;9.156;2023-04-25T07:39:39;7.43;;;6.73;;
8435;SDS011;4255;48.730;9.156;2023-04-25T07:42:05;6.17;;;5.53;;
8435;SDS011;4255;48.730;9.156;2023-04-25T07:44:33;9.15;;;5.75;;
8435;SDS011;4255;48.730;9.156;2023-04-25T07:47:09;7.47;;;6.00;;
8435;SDS011;4255;48.730;9.156;2023-04-25T07:49:35;8.98;;;6.78;;
8435;SDS011;4255;48.730;9.156;2023-04-25T07:52:02;10.05;;;7.50;;
8435;SDS011;4255;48.730;9.156;2023-04-25T07:54:30;8.65;;;6.28;;
8435;SDS011;4255;48.730;9.156;2023-04-25T07:56:56;6.40;;;5.80;;
8435;SDS011;4255;48.730;9.156;2023-04-25T07:59:21;8.10;;;6.67;;
8435;SDS011;4255;48.730;9.156;2023-04-25T08:01:47;10.40;;;7.40;;
8435;SDS011;4255;48.730;9.156;2023-04-25T08:04:13;6.87;;;6.17;;
8435;SDS011;4255;48.730;9.156;2023-04-25T08:06:39;7.23;;;6.50;;
8435;SDS011;4255;48.730;9.156;2023-04-25T08:09:05;7.97;;;7.18;;
8435;SDS011;4255;48.730;9.156;2023-04-25T08:11:31;7.50;;;6.50;;
8435;SDS011;4255;48.730;9.156;2023-04-25T08:13:56;7.67;;;6.87;;
8435;SDS011;4255;48.730;9.156;2023-04-25T08:16:22;11.17;;;6.90;;
8435;SDS011;4255;48.730;9.156;2023-04-25T08:18:47;8.40;;;6.90;;
8435;SDS011;4255;48.730;9.156;2023-04-25T08:21:14;24.15;;;15.45;;
8435;SDS011;4255;48.730;9.156;2023-04-25T08:23:40;8.77;;;7.17;;
8435;SDS011;4255;48.730;9.156;2023-04-25T08:26:06;8.10;;;7.30;;
8435;SDS011;4255;48.730;9.156;2023-04-25T08:28:32;7.60;;;6.70;;
8435;SDS011;4255;48.730;9.156;2023-04-25T08:30:57;9.10;;;8.20;;
8435;SDS011;4255;48.730;9.156;2023-04-25T08:33:23;13.23;;;10.40;;
8435;SDS011;4255;48.730;9.156;2023-04-25T08:35:48;10.13;;;7.40;;
8435;SDS011;4255;48.730;9.156;2023-04-25T08:38:14;9.57;;;8.67;;
8435;SDS011;4255;48.730;9.156;2023-04-25T08:40:40;9.27;;;8.10;;
8435;SDS011;4255;48.730;9.156;2023-04-25T08:43:08;11.80;;;8.85;;
8435;SDS011;4255;48.730;9.156;2023-04-25T08:45:36;10.32;;;7.90;;
8435;SDS011;4255;48.730;9.156;2023-04-25T08:48:06;11.40;;;9.38;;
8435;SDS011;4255;48.730;9.156;2023-04-25T08:50:36;12.60;;;8.30;;
8435;SDS011;4255;48.730;9.156;2023-04-25T08:53:08;11.10;;;8.88;;
8435;SDS011;4255;48.730;9.156;2023-04-25T08:55:38;14.05;;;8.23;;
8435;SDS011;4255;48.730;9.156;2023-04-25T08:58:07;10.82;;;7.60;;
8435;SDS011;4255;48.730;9.156;2023-04-25T09:00:35;11.98;;;10.25;;
8435;SDS011;4255;48.730;9.156;2023-04-25T09:03:00;8.23;;;7.43;;
8435;SDS011;4255;48.730;9.156;2023-04-25T09:05:27;10.50;;;7.50;;
8435;SDS011;4255;48.730;9.156;2023-04-25T09:07:53;7.80;;;6.47;;
8435;SDS011;4255;48.730;9.156;2023-04-25T09:10:19;9.23;;;7.40;;
8435;SDS011;4255;48.730;9.156;2023-04-25T09:12:45;7.80;;;6.90;;
8435;SDS011;4255;48.730;9.156;2023-04-25T09:15:28;7.57;;;6.65;;
8435;SDS011;4255;48.730;9.156;2023-04-25T09:17:55;9.15;;;7.72;;
8435;SDS011;4255;48.730;9.156;2023-04-25T09:20:21;7.25;;;6.55;;
8435;SDS011;4255;48.730;9.156;2023-04-25T09:22:47;9.50;;;7.13;;
8435;SDS011;4255;48.730;9.156;2023-04-25T09:25:12;7.60;;;6.90;;
8435;SDS011;4255;48.730;9.156;2023-04-25T09:27:51;7.72;;;6.82;;
8435;SDS011;4255;48.730;9.156;2023-04-25T09:30:18;7.68;;;6.95;;
8435;SDS011;4255;48.730;9.156;2023-04-25T09:32:55;11.07;;;7.80;;
8435;SDS011;4255;48.730;9.156;2023-04-25T09:35:23;7.95;;;6.78;;
8435;SDS011;4255;48.730;9.156;2023-04-25T09:37:51;7.13;;;6.43;;
8435;SDS011;4255;48.730;9.156;2023-04-25T09:40:17;6.93;;;6.23;;
8435;SDS011;4255;48.730;9.156;2023-04-25T09:42:43;9.07;;;6.68;;
8435;SDS011;4255;48.730;9.156;2023-04-25T09:45:09;6.17;;;5.30;;
8435;SDS011;4255;48.730;9.156;2023-04-25T09:47:38;6.20;;;5.57;;
8435;SDS011;4255;48.730;9.156;2023-04-25T09:50:04;7.00;;;6.30;;
8435;SDS011;4255;48.730;9.156;2023-04-25T09:52:44;6.20;;;5.60;;
8435;SDS011;4255;48.730;9.156;2023-04-25T09:55:10;6.88;;;5.85;;
8435;SDS011;4255;48.730;9.156;2023-04-25T09:57:36;8.50;;;7.15;;
8435;SDS011;4255;48.730;9.156;2023-04-25T10:00:04;7.20;;;6.55;;
8435;SDS011;4255;48.730;9.156;2023-04-25T10:02:35;6.00;;;5.50;;
8435;SDS011;4255;48.730;9.156;2023-04-25T10:05:05;5.47;;;4.20;;
8435;SDS011;4255;48.730;9.156;2023-04-25T10:07:32;5.32;;;4.82;;
8435;SDS011;4255;48.730;9.156;2023-04-25T10:10:03;3.65;;;3.15;;
8435;SDS011;4255;48.730;9.156;2023-04-25T10:12:30;3.10;;;2.90;;
8435;SDS011;4255;48.730;9.156;2023-04-25T10:14:57;3.05;;;2.85;;
8435;SDS011;4255;48.730;9.156;2023-04-25T10:17:23;2.88;;;2.67;;
8435;SDS011;4255;48.730;9.156;2023-04-25T10:19:51;3.70;;;3.40;;
8435;SDS011;4255;48.730;9.156;2023-04-25T10:25:00;2.75;;;2.55;;
8435;SDS011;4255;48.730;9.156;2023-04-25T10:27:28;2.80;;;2.70;;
8435;SDS011;4255;48.730;9.156;2023-04-25T10:30:08;2.60;;;2.50;;
8435;SDS011;4255;48.730;9.156;2023-04-25T10:32:37;3.05;;;2.80;;
8435;SDS011;4255;48.730;9.156;2023-04-25T10:38:04;3.13;;;2.83;;
8435;SDS011;4255;48.730;9.156;2023-04-25T10:40:35;3.03;;;2.65;;
8435;SDS011;4255;48.730;9.156;2023-04-25T10:46:01;4.40;;;3.50;;
8435;SDS011;4255;48.730;9.156;2023-04-25T10:48:31;16.42;;;9.52;;
8435;SDS011;4255;48.730;9.156;2023-04-25T10:51:09;13.85;;;7.57;;
8435;SDS011;4255;48.730;9.156;2023-04-25T10:53:36;10.95;;;6.72;;
8435;SDS011;4255;48.730;9.156;2023-04-25T10:56:11;5.00;;;4.60;;
8435;SDS011;4255;48.730;9.156;2023-04-25T10:58:47;2.60;;;2.50;;
8435;SDS011;4255;48.730;9.156;2023-04-25T11:01:14;3.33;;;3.13;;
8435;SDS011;4255;48.730;9.156;2023-04-25T11:03:44;8.00;;;6.90;;
8435;SDS011;4255;48.730;9.156;2023-04-25T11:06:22;5.00;;;4.60;;
8435;SDS011;4255;48.730;9.156;2023-04-25T11:08:54;2.75;;;2.65;;
8435;SDS011;4255;48.730;9.156;2023-04-25T11:11:20;4.03;;;3.40;;
8435;SDS011;4255;48.730;9.156;2023-04-25T11:13:49;3.73;;;3.50;;
8435;SDS011;4255;48.730;9.156;2023-04-25T11:16:15;4.35;;;3.35;;
8435;SDS011;4255;48.730;9.156;2023-04-25T11:18:42;5.43;;;4.68;;
8435;SDS011;4255;48.730;9.156;2023-04-25T11:21:08;4.25;;;3.95;;
8435;SDS011;4255;48.730;9.156;2023-04-25T11:23:34;4.90;;;4.50;;
8435;SDS011;4255;48.730;9.156;2023-04-25T11:25:59;3.70;;;3.40;;
8435;SDS011;4255;48.730;9.156;2023-04-25T11:28:26;5.30;;;3.70;;
8435;SDS011;4255;48.730;9.156;2023-04-25T11:30:52;3.63;;;3.30;;
8435;SDS011;4255;48.730;9.156;2023-04-25T11:33:18;3.70;;;3.40;;
8435;SDS011;4255;48.730;9.156;2023-04-25T11:35:48;4.82;;;4.32;;
8435;SDS011;4255;48.730;9.156;2023-04-25T11:38:14;8.50;;;3.63;;
8435;SDS011;4255;48.730;9.156;2023-04-25T11:40:40;4.10;;;3.73;;
8435;SDS011;4255;48.730;9.156;2023-04-25T11:43:05;4.23;;;3.83;;
8435;SDS011;4255;48.730;9.156;2023-04-25T11:45:32;3.45;;;3.25;;
8435;SDS011;4255;48.730;9.156;2023-04-25T11:47:57;4.37;;;3.97;;
8435;SDS011;4255;48.730;9.156;2023-04-25T11:50:23;3.43;;;3.13;;
8435;SDS011;4255;48.730;9.156;2023-04-25T11:52:48;3.07;;;2.87;;
8435;SDS011;4255;48.730;9.156;2023-04-25T11:55:16;3.13;;;2.92;;
8435;SDS011;4255;48.730;9.156;2023-04-25T11:57:43;6.07;;;3.13;;
8435;SDS011;4255;48.730;9.156;2023-04-25T12:00:11;3.78;;;3.47;;
8435;SDS011;4255;48.730;9.156;2023-04-25T12:02:45;4.60;;;4.00;;
8435;SDS011;4255;48.730;9.156;2023-04-25T12:05:14;4.10;;;3.65;;
8435;SDS011;4255;48.730;9.156;2023-04-25T12:07:44;4.45;;;4.07;;
8435;SDS011;4255;48.730;9.156;2023-04-25T12:10:11;4.70;;;4.30;;
8435;SDS011;4255;48.730;9.156;2023-04-25T12:12:38;5.35;;;4.85;;
8435;SDS011;4255;48.730;9.156;2023-04-25T12:17:37;5.10;;;4.15;;
8435;SDS011;4255;48.730;9.156;2023-04-25T12:20:10;5.28;;;4.18;;
8435;SDS011;4255;48.730;9.156;2023-04-25T12:22:41;5.47;;;4.97;;
8435;SDS011;4255;48.730;9.156;2023-04-25T12:25:13;10.05;;;6.80;;
8435;SDS011;4255;48.730;9.156;2023-04-25T12:28:13;9.82;;;7.93;;
8435;SDS011;4255;48.730;9.156;2023-04-25T12:33:18;8.75;;;5.70;;
8435;SDS011;4255;48.730;9.156;2023-04-25T12:35:43;7.80;;;7.00;;
8435;SDS011;4255;48.730;9.156;2023-04-25T12:38:09;6.10;;;5.50;;
8435;SDS011;4255;48.730;9.156;2023-04-25T12:40:35;9.80;;;7.13;;
8435;SDS011;4255;48.730;9.156;2023-04-25T12:43:01;7.80;;;6.97;;
8435;SDS011;4255;48.730;9.156;2023-04-25T12:45:26;8.83;;;7.47;;
8435;SDS011;4255;48.730;9.156;2023-04-25T12:47:52;11.83;;;6.40;;
8435;SDS011;4255;48.730;9.156;2023-04-25T12:50:17;7.20;;;6.43;;
8435;SDS011;4255;48.730;9.156;2023-04-25T12:52:43;7.67;;;6.03;;
8435;SDS011;4255;48.730;9.156;2023-04-25T12:55:09;6.77;;;6.17;;
8435;SDS011;4255;48.730;9.156;2023-04-25T12:57:34;11.83;;;6.77;;
8435;SDS011;4255;48.730;9.156;2023-04-25T13:00:00;6.83;;;6.13;;
8435;SDS011;4255;48.730;9.156;2023-04-25T13:02:28;11.60;;;6.33;;
8435;SDS011;4255;48.730;9.156;2023-04-25T13:04:53;7.38;;;5.82;;
8435;SDS011;4255;48.730;9.156;2023-04-25T13:07:19;6.80;;;6.10;;
8435;SDS011;4255;48.730;9.156;2023-04-25T13:09:44;8.43;;;6.10;;
8435;SDS011;4255;48.730;9.156;2023-04-25T13:12:10;7.00;;;6.37;;
8435;SDS011;4255;48.730;9.156;2023-04-25T13:14:36;10.20;;;6.70;;
8435;SDS011;4255;48.730;9.156;2023-04-25T13:17:01;7.40;;;6.17;;
8435;SDS011;4255;48.730;9.156;2023-04-25T13:19:28;11.60;;;6.30;;
8435;SDS011;4255;48.730;9.156;2023-04-25T13:21:53;6.47;;;5.87;;
8435;SDS011;4255;48.730;9.156;2023-04-25T13:24:19;7.30;;;5.30;;
8435;SDS011;4255;48.730;9.156;2023-04-25T13:26:45;7.20;;;6.50;;
8435;SDS011;4255;48.730;9.156;2023-04-25T13:29:11;11.00;;;5.90;;
8435;SDS011;4255;48.730;9.156;2023-04-25T13:31:36;8.73;;;6.47;;
8435;SDS011;4255;48.730;9.156;2023-04-25T13:34:02;9.50;;;6.80;;
8435;SDS011;4255;48.730;9.156;2023-04-25T13:36:28;7.18;;;6.40;;
8435;SDS011;4255;48.730;9.156;2023-04-25T13:38:54;8.70;;;7.80;;
8435;SDS011;4255;48.730;9.156;2023-04-25T13:41:19;9.70;;;7.10;;
8435;SDS011;4255;48.730;9.156;2023-04-25T13:43:46;9.30;;;7.10;;
8435;SDS011;4255;48.730;9.156;2023-04-25T13:46:12;8.60;;;7.70;;
8435;SDS011;4255;48.730;9.156;2023-04-25T13:48:40;9.40;;;8.25;;
8435;SDS011;4255;48.730;9.156;2023-04-25T13:51:11;10.90;;;9.20;;
8435;SDS011;4255;48.730;9.156;2023-04-25T13:53:37;10.43;;;7.93;;
8435;SDS011;4255;48.730;9.156;2023-04-25T13:56:02;10.97;;;9.87;;
8435;SDS011;4255;48.730;9.156;2023-04-25T13:58:29;12.32;;;9.98;;
8435;SDS011;4255;48.730;9.156;2023-04-25T14:00:55;12.73;;;9.23;;
8435;SDS011;4255;48.730;9.156;2023-04-25T14:03:21;10.07;;;9.00;;
8435;SDS011;4255;48.730;9.156;2023-04-25T14:05:46;12.93;;;10.97;;
8435;SDS011;4255;48.730;9.156;2023-04-25T14:08:12;11.63;;;10.43;;
8435;SDS011;4255;48.730;9.156;2023-04-25T14:10:38;13.67;;;10.00;;
8435;SDS011;4255;48.730;9.156;2023-04-25T14:13:04;9.87;;;8.80;;
8435;SDS011;4255;48.730;9.156;2023-04-25T14:15:31;11.40;;;8.93;;
8435;SDS011;4255;48.730;9.156;2023-04-25T14:17:56;11.65;;;9.48;;
8435;SDS011;4255;48.730;9.156;2023-04-25T14:20:22;9.70;;;8.70;;
8435;SDS011;4255;48.730;9.156;2023-04-25T14:22:48;14.27;;;8.20;;
8435;SDS011;4255;48.730;9.156;2023-04-25T14:25:14;9.90;;;8.90;;
8435;SDS011;4255;48.730;9.156;2023-04-25T14:27:40;10.47;;;7.77;;
8435;SDS011;4255;48.730;9.156;2023-04-25T14:30:06;9.70;;;7.87;;
8435;SDS011;4255;48.730;9.156;2023-04-25T14:32:34;11.83;;;7.43;;
8435;SDS011;4255;48.730;9.156;2023-04-25T14:34:59;9.33;;;6.57;;
8435;SDS011;4255;48.730;9.156;2023-04-25T14:37:25;9.63;;;7.50;;
8435;SDS011;4255;48.730;9.156;2023-04-25T14:39:51;7.63;;;6.93;;
8435;SDS011;4255;48.730;9.156;2023-04-25T14:42:16;7.90;;;6.70;;
8435;SDS011;4255;48.730;9.156;2023-04-25T14:44:42;6.77;;;6.03;;
8435;SDS011;4255;48.730;9.156;2023-04-25T14:47:07;10.47;;;6.10;;
8435;SDS011;4255;48.730;9.156;2023-04-25T14:49:33;7.37;;;6.03;;
8435;SDS011;4255;48.730;9.156;2023-04-25T14:51:58;5.73;;;5.23;;
8435;SDS011;4255;48.730;9.156;2023-04-25T14:54:24;7.18;;;6.47;;
8435;SDS011;4255;48.730;9.156;2023-04-25T14:56:50;7.40;;;5.80;;
8435;SDS011;4255;48.730;9.156;2023-04-25T14:59:16;8.70;;;5.90;;
8435;SDS011;4255;48.730;9.156;2023-04-25T15:01:41;6.13;;;5.53;;
8435;SDS011;4255;48.730;9.156;2023-04-25T15:04:07;6.03;;;5.47;;
8435;SDS011;4255;48.730;9.156;2023-04-25T15:06:33;5.20;;;4.70;;
8435;SDS011;4255;48.730;9.156;2023-04-25T15:08:58;6.40;;;5.10;;
8435;SDS011;4255;48.730;9.156;2023-04-25T15:11:24;6.23;;;5.63;;
8435;SDS011;4255;48.730;9.156;2023-04-25T15:13:50;7.63;;;5.80;;
8435;SDS011;4255;48.730;9.156;2023-04-25T15:16:15;6.37;;;5.77;;
8435;SDS011;4255;48.730;9.156;2023-04-25T15:18:41;6.47;;;5.63;;
8435;SDS011;4255;48.730;9.156;2023-04-25T15:21:06;6.67;;;6.00;;
8435;SDS011;4255;48.730;9.156;2023-04-25T15:23:32;5.30;;;4.77;;